Time;durP1;ratioP1;P1;durP2;ratioP2;P2;SDS_P1;SDS_P2;PMS_P1;PMS_P2;Temp;Humidity;BMP_temperature;BMP_pressure;BME280_temperature;BME280_humidity;BME280_pressure;Samples;Min_cycle;Max_cycle;Signal;HPM_P1;HPM_P2
2020/12/14 00:00:47;;;;;;;8.18;5.10;;;4.40;99.90;;;;;;5014346;28;20214;-80
2020/12/14 00:03:13;;;;;;;6.22;4.72;;;4.40;99.90;;;;;;5013248;28;20408;-79
2020/12/14 00:05:39;;;;;;;7.70;5.80;;;4.40;99.90;;;;;;5014332;28;20667;-79
2020/12/14 00:08:06;;;;;;;5.82;5.05;;;4.40;99.90;;;;;;5013948;28;20299;-79
2020/12/14 00:10:33;;;;;;;7.93;5.85;;;4.30;99.90;;;;;;5014372;28;20199;-79
2020/12/14 00:12:59;;;;;;;8.45;4.63;;;4.30;99.90;;;;;;5013076;28;20219;-80
2020/12/14 00:15:26;;;;;;;5.85;4.28;;;4.30;99.90;;;;;;5014437;28;20299;-80
2020/12/14 00:17:52;;;;;;;8.23;5.35;;;4.20;99.90;;;;;;5013086;28;20677;-80
2020/12/14 00:20:18;;;;;;;6.63;4.40;;;4.20;99.90;;;;;;5014003;28;20655;-80
2020/12/14 00:22:44;;;;;;;6.07;5.13;;;4.20;99.90;;;;;;5014137;28;20204;-79
2020/12/14 00:25:11;;;;;;;6.72;5.15;;;4.30;99.90;;;;;;5014212;28;20297;-80
2020/12/14 00:27:38;;;;;;;7.45;5.35;;;4.30;99.90;;;;;;5013989;28;20345;-80
2020/12/14 00:30:05;;;;;;;7.30;4.90;;;4.30;99.90;;;;;;5014003;28;20206;-80
2020/12/14 00:32:31;;;;;;;8.82;5.78;;;4.20;99.90;;;;;;5012733;28;20207;-80
2020/12/14 00:34:58;;;;;;;6.57;4.63;;;4.30;99.90;;;;;;5014045;28;20214;-80
2020/12/14 00:37:24;;;;;;;7.60;4.75;;;4.30;99.90;;;;;;5012621;28;20614;-81
2020/12/14 00:39:50;;;;;;;8.57;6.22;;;4.30;99.90;;;;;;5013512;28;20235;-80
2020/12/14 00:42:17;;;;;;;9.65;5.55;;;4.40;99.90;;;;;;5013999;28;20213;-80
2020/12/14 00:44:46;;;;;;;6.53;4.80;;;4.40;99.90;;;;;;5013721;28;20694;-81
2020/12/14 00:47:12;;;;;;;7.72;4.90;;;4.50;99.90;;;;;;5013846;28;20583;-82
2020/12/14 00:49:38;;;;;;;7.28;3.92;;;4.50;99.90;;;;;;5012576;28;20200;-80
2020/12/14 00:52:05;;;;;;;6.05;4.55;;;4.60;99.90;;;;;;5013379;28;20868;-81
2020/12/14 00:54:32;;;;;;;7.22;5.80;;;4.60;99.90;;;;;;5009604;28;20723;-81
2020/12/14 00:56:58;;;;;;;5.68;4.93;;;4.60;99.90;;;;;;5013567;28;20223;-81
2020/12/14 00:59:24;;;;;;;9.73;5.45;;;4.60;99.90;;;;;;5013366;28;20231;-80
2020/12/14 01:01:52;;;;;;;8.45;4.78;;;4.60;99.90;;;;;;5013545;28;20207;-81
2020/12/14 01:04:19;;;;;;;9.23;4.95;;;4.50;99.90;;;;;;5012435;28;20294;-80
2020/12/14 01:06:45;;;;;;;9.23;5.40;;;4.50;99.90;;;;;;4998665;28;20295;-80
2020/12/14 01:09:11;;;;;;;7.45;5.30;;;4.50;99.90;;;;;;4993523;28;20204;-80
2020/12/14 01:11:38;;;;;;;7.95;5.07;;;4.50;99.90;;;;;;4993627;28;20676;-80
2020/12/14 01:14:04;;;;;;;6.78;4.40;;;4.40;99.90;;;;;;4993717;28;20680;-80
2020/12/14 01:16:31;;;;;;;7.68;4.30;;;4.40;99.90;;;;;;4993694;28;20204;-80
2020/12/14 01:18:58;;;;;;;10.10;5.25;;;4.40;99.90;;;;;;4992339;28;20258;-80
2020/12/14 01:21:25;;;;;;;9.32;4.68;;;4.40;99.90;;;;;;4993616;28;20569;-80
2020/12/14 01:23:51;;;;;;;7.32;4.57;;;4.30;99.90;;;;;;4993209;28;20310;-80
2020/12/14 01:26:18;;;;;;;7.50;5.45;;;4.30;99.90;;;;;;4993400;28;20208;-80
2020/12/14 01:28:44;;;;;;;6.35;5.43;;;4.30;99.90;;;;;;4993516;28;20744;-80
2020/12/14 01:31:11;;;;;;;8.45;5.20;;;4.20;99.90;;;;;;4993443;28;20251;-80
2020/12/14 01:33:37;;;;;;;9.15;6.13;;;4.20;99.90;;;;;;4992232;28;20200;-80
2020/12/14 01:36:04;;;;;;;8.02;5.65;;;4.20;99.90;;;;;;5001622;28;20690;-80
2020/12/14 01:38:31;;;;;;;11.23;5.85;;;4.20;99.90;;;;;;5011906;28;20599;-81
2020/12/14 01:40:57;;;;;;;7.28;5.60;;;4.20;99.90;;;;;;5012902;28;20293;-80
2020/12/14 01:43:25;;;;;;;9.50;5.35;;;4.20;99.90;;;;;;5013041;28;20208;-80
2020/12/14 01:45:51;;;;;;;7.63;5.03;;;4.30;99.90;;;;;;5013100;28;20285;-80
2020/12/14 01:48:18;;;;;;;7.90;5.55;;;4.30;99.90;;;;;;5007982;28;20238;-80
2020/12/14 01:50:45;;;;;;;6.38;4.60;;;4.20;99.90;;;;;;5012729;28;20200;-80
2020/12/14 01:53:13;;;;;;;8.30;5.55;;;4.20;99.90;;;;;;5000058;28;20210;-80
2020/12/14 01:55:42;;;;;;;13.30;6.60;;;4.20;99.90;;;;;;4997571;28;20214;-79
2020/12/14 01:58:08;;;;;;;11.02;5.40;;;4.20;99.90;;;;;;4997360;28;20245;-80
2020/12/14 02:00:35;;;;;;;8.27;5.90;;;4.10;99.90;;;;;;4997632;28;20291;-80
2020/12/14 02:03:02;;;;;;;9.52;6.38;;;4.10;99.90;;;;;;4997898;28;20295;-80
2020/12/14 02:05:28;;;;;;;7.18;4.72;;;4.00;99.90;;;;;;5016346;28;20664;-79
2020/12/14 02:07:54;;;;;;;9.43;7.10;;;4.00;99.90;;;;;;5016747;28;20289;-78
2020/12/14 02:10:22;;;;;;;9.43;5.75;;;4.00;99.90;;;;;;5016715;28;20216;-79
2020/12/14 02:12:48;;;;;;;9.60;5.93;;;4.00;99.90;;;;;;5016609;28;20626;-79
2020/12/14 02:15:15;;;;;;;8.60;5.20;;;4.00;99.90;;;;;;5016642;28;20307;-79
2020/12/14 02:17:42;;;;;;;12.40;7.22;;;4.00;99.90;;;;;;5015344;28;20231;-79
2020/12/14 02:20:08;;;;;;;8.55;5.97;;;4.00;99.90;;;;;;5016584;28;20208;-78
2020/12/14 02:22:34;;;;;;;9.07;5.93;;;3.90;99.90;;;;;;5016779;28;20205;-78
2020/12/14 02:25:03;;;;;;;8.90;5.88;;;3.90;99.90;;;;;;5016764;28;20203;-78
2020/12/14 02:27:31;;;;;;;9.60;6.30;;;4.00;99.90;;;;;;5017306;28;20211;-80
2020/12/14 02:29:58;;;;;;;9.68;6.35;;;3.90;99.90;;;;;;5016420;28;20564;-79
2020/12/14 02:32:26;;;;;;;7.78;5.50;;;3.90;99.90;;;;;;5016433;28;20200;-80
2020/12/14 02:34:53;;;;;;;8.30;5.43;;;3.90;99.90;;;;;;5015905;28;20674;-79
2020/12/14 02:37:21;;;;;;;9.05;5.38;;;3.80;99.90;;;;;;5016132;28;20237;-80
2020/12/14 02:39:47;;;;;;;7.15;5.32;;;3.80;99.90;;;;;;5015706;28;20204;-78
2020/12/14 02:42:16;;;;;;;7.25;5.45;;;3.70;99.90;;;;;;4977160;28;20296;-80
2020/12/14 02:44:43;;;;;;;7.85;5.82;;;3.70;99.90;;;;;;4977168;28;20215;-80
2020/12/14 02:47:10;;;;;;;9.80;6.13;;;3.70;99.90;;;;;;4977087;28;20292;-80
2020/12/14 02:49:37;;;;;;;9.10;6.82;;;3.70;99.90;;;;;;4976055;28;20211;-80
2020/12/14 02:52:05;;;;;;;9.07;5.70;;;3.60;99.90;;;;;;4979578;28;20613;-80
2020/12/14 02:54:32;;;;;;;9.32;6.03;;;3.60;99.90;;;;;;5016270;28;20203;-80
2020/12/14 02:56:58;;;;;;;8.85;5.28;;;3.50;99.90;;;;;;5016031;28;20211;-79
2020/12/14 02:59:26;;;;;;;8.68;6.10;;;3.50;99.90;;;;;;5015962;28;20330;-79
2020/12/14 03:01:52;;;;;;;11.40;5.63;;;3.40;99.90;;;;;;5021852;28;20271;-78
2020/12/14 03:04:20;;;;;;;10.50;5.63;;;3.40;99.90;;;;;;5030377;28;20223;-79
2020/12/14 03:06:48;;;;;;;8.50;5.75;;;3.40;99.90;;;;;;5035600;28;20231;-78
2020/12/14 03:09:15;;;;;;;8.32;5.25;;;3.30;99.90;;;;;;5035132;28;20214;-79
2020/12/14 03:11:42;;;;;;;9.40;5.95;;;3.20;99.90;;;;;;5025447;28;20587;-79
2020/12/14 03:14:09;;;;;;;8.88;4.85;;;3.20;99.90;;;;;;5015845;28;20238;-78
2020/12/14 03:16:39;;;;;;;12.80;6.38;;;3.10;99.90;;;;;;5016416;28;20210;-79
2020/12/14 03:19:06;;;;;;;6.53;5.78;;;3.10;99.90;;;;;;5011498;28;20235;-79
2020/12/14 03:21:32;;;;;;;8.00;4.82;;;3.10;99.90;;;;;;5015572;28;20229;-80
2020/12/14 03:23:58;;;;;;;5.38;4.88;;;3.10;99.90;;;;;;5015523;28;20210;-79
2020/12/14 03:26:25;;;;;;;6.35;4.88;;;3.00;99.90;;;;;;5015639;28;20211;-79
2020/12/14 03:28:51;;;;;;;9.82;5.75;;;3.10;99.90;;;;;;5015521;28;20290;-79
2020/12/14 03:31:18;;;;;;;9.30;6.97;;;3.10;99.90;;;;;;5017133;28;20204;-79
2020/12/14 03:33:45;;;;;;;8.20;5.15;;;3.10;99.90;;;;;;5015970;28;20291;-79
2020/12/14 03:36:12;;;;;;;10.35;5.95;;;3.10;99.90;;;;;;5016708;28;20592;-79
2020/12/14 03:38:38;;;;;;;18.25;6.28;;;3.10;99.90;;;;;;5015621;28;20278;-79
2020/12/14 03:41:05;;;;;;;8.43;4.97;;;3.00;99.90;;;;;;5014685;28;20288;-79
2020/12/14 03:43:31;;;;;;;10.40;5.35;;;3.10;99.90;;;;;;5016534;28;20307;-79
2020/12/14 03:45:58;;;;;;;6.68;4.75;;;3.10;99.90;;;;;;5017335;28;20211;-78
2020/12/14 03:48:25;;;;;;;4.88;4.00;;;3.20;99.90;;;;;;5016035;28;20253;-78
2020/12/14 03:50:52;;;;;;;7.90;4.70;;;3.30;99.90;;;;;;5016942;28;20204;-79
2020/12/14 03:53:19;;;;;;;5.85;4.18;;;3.30;99.90;;;;;;5016918;28;20278;-79
2020/12/14 03:55:45;;;;;;;7.50;5.18;;;3.30;99.90;;;;;;5015890;28;20200;-78
2020/12/14 03:58:12;;;;;;;6.88;4.53;;;3.30;99.90;;;;;;5015167;28;20251;-79
2020/12/14 04:00:38;;;;;;;6.45;3.97;;;3.20;99.90;;;;;;5014614;28;20733;-79
2020/12/14 04:03:07;;;;;;;9.23;5.07;;;3.20;99.90;;;;;;5013400;28;20224;-80
2020/12/14 04:05:33;;;;;;;4.70;3.53;;;3.10;99.90;;;;;;5014236;28;20234;-79
2020/12/14 04:08:03;;;;;;;8.52;5.82;;;3.00;99.90;;;;;;5014362;28;20679;-79
2020/12/14 04:10:29;;;;;;;7.15;4.93;;;3.00;99.90;;;;;;5013489;28;20299;-79
2020/12/14 04:12:56;;;;;;;6.60;5.15;;;2.90;99.90;;;;;;5014433;28;20608;-80
2020/12/14 04:15:22;;;;;;;6.68;4.70;;;2.80;99.90;;;;;;5013347;28;20611;-79
2020/12/14 04:17:49;;;;;;;9.40;6.38;;;2.80;99.90;;;;;;5013121;28;20762;-79
2020/12/14 04:20:15;;;;;;;6.75;4.32;;;2.80;99.90;;;;;;5014024;28;20210;-79
2020/12/14 04:22:42;;;;;;;9.05;6.38;;;2.80;99.90;;;;;;5014394;28;20298;-79
2020/12/14 04:25:10;;;;;;;6.20;5.25;;;2.70;99.90;;;;;;5014181;28;20226;-79
2020/12/14 04:27:36;;;;;;;9.07;4.72;;;2.70;99.90;;;;;;5014179;28;20678;-79
2020/12/14 04:30:03;;;;;;;5.45;4.47;;;2.70;99.90;;;;;;5014118;28;20207;-78
2020/12/14 04:32:29;;;;;;;6.10;4.10;;;2.70;99.90;;;;;;5013305;28;20663;-78
2020/12/14 04:34:55;;;;;;;8.10;4.28;;;2.70;99.90;;;;;;5013462;28;20298;-79
2020/12/14 04:37:22;;;;;;;7.25;5.07;;;2.70;99.90;;;;;;5013734;28;20305;-79
2020/12/14 04:39:48;;;;;;;9.93;5.07;;;2.70;99.90;;;;;;5012835;28;20203;-79
2020/12/14 04:42:16;;;;;;;7.07;5.43;;;2.80;99.90;;;;;;5013798;28;20204;-79
2020/12/14 04:44:43;;;;;;;5.47;4.47;;;2.80;99.90;;;;;;5013695;28;20286;-79
2020/12/14 04:47:12;;;;;;;6.50;4.60;;;2.80;99.90;;;;;;5013727;28;20203;-79
2020/12/14 04:49:39;;;;;;;6.35;4.22;;;2.80;99.90;;;;;;5012230;28;20204;-80
2020/12/14 04:52:06;;;;;;;5.45;3.95;;;2.80;99.90;;;;;;5011214;28;20199;-78
2020/12/14 04:54:33;;;;;;;4.57;4.05;;;2.80;99.90;;;;;;5013385;28;20735;-79
2020/12/14 04:57:05;;;;;;;6.55;4.05;;;2.90;99.90;;;;;;5013214;28;20207;-79
2020/12/14 04:59:32;;;;;;;7.63;4.78;;;2.90;99.90;;;;;;5013444;28;20254;-79
2020/12/14 05:02:07;;;;;;;7.13;3.90;;;2.90;99.90;;;;;;5013568;28;20210;-79
2020/12/14 05:04:33;;;;;;;8.18;4.40;;;2.80;99.90;;;;;;5012278;28;20207;-79
2020/12/14 05:07:00;;;;;;;8.02;4.40;;;2.80;99.90;;;;;;5009540;28;20203;-79
2020/12/14 05:09:26;;;;;;;7.18;4.68;;;2.70;99.90;;;;;;5011883;28;20211;-79
2020/12/14 05:11:53;;;;;;;6.53;3.90;;;2.60;99.90;;;;;;5013486;28;20199;-79
2020/12/14 05:14:21;;;;;;;4.55;3.83;;;2.60;99.90;;;;;;5013417;28;20686;-79
2020/12/14 05:16:49;;;;;;;7.30;4.53;;;2.50;99.90;;;;;;5013318;28;20199;-78
2020/12/14 05:19:22;;;;;;;8.20;4.45;;;2.50;99.90;;;;;;5011985;28;20602;-78
2020/12/14 05:21:50;;;;;;;6.10;4.35;;;2.50;99.90;;;;;;5011802;28;20203;-78
2020/12/14 05:24:25;;;;;;;6.45;4.32;;;2.50;99.90;;;;;;5013782;28;20214;-79
2020/12/14 05:26:54;;;;;;;5.55;4.22;;;2.50;99.90;;;;;;5013128;28;20207;-79
2020/12/14 05:29:26;;;;;;;4.28;3.80;;;2.50;99.90;;;;;;5012870;28;20214;-79
2020/12/14 05:32:04;;;;;;;5.30;3.67;;;2.60;99.90;;;;;;5012837;28;20644;-79
2020/12/14 05:34:32;;;;;;;3.75;3.45;;;2.60;99.90;;;;;;5011865;28;20211;-78
2020/12/14 05:37:00;;;;;;;7.40;4.78;;;2.60;99.90;;;;;;5012797;28;20295;-78
2020/12/14 05:39:27;;;;;;;8.05;5.72;;;2.60;99.90;;;;;;5011369;28;20239;-78
2020/12/14 05:41:54;;;;;;;4.45;3.80;;;2.50;99.90;;;;;;5012867;28;20211;-78
2020/12/14 05:44:29;;;;;;;5.93;4.65;;;2.50;99.90;;;;;;5012952;28;20619;-79
2020/12/14 05:46:56;;;;;;;6.00;4.10;;;2.50;99.90;;;;;;5012866;28;20663;-79
2020/12/14 05:49:23;;;;;;;5.40;3.50;;;2.50;99.90;;;;;;5011699;28;20207;-78
2020/12/14 05:51:49;;;;;;;5.78;5.10;;;2.50;99.90;;;;;;5012751;28;20238;-78
2020/12/14 05:54:22;;;;;;;6.07;4.05;;;2.50;99.90;;;;;;5012708;28;20703;-79
2020/12/14 05:56:49;;;;;;;4.68;3.90;;;2.50;99.90;;;;;;5012858;28;20207;-79
2020/12/14 05:59:18;;;;;;;5.13;4.63;;;2.50;99.90;;;;;;5012674;28;20710;-79
2020/12/14 06:01:46;;;;;;;7.78;4.50;;;2.50;99.90;;;;;;5012668;28;20564;-79
2020/12/14 06:04:13;;;;;;;7.28;5.22;;;2.50;99.90;;;;;;5011628;28;20204;-79
2020/12/14 06:06:48;;;;;;;5.40;3.60;;;2.60;99.90;;;;;;4952115;28;20306;-79
2020/12/14 06:09:21;;;;;;;7.45;5.70;;;2.60;99.90;;;;;;4952038;28;20692;-78
2020/12/14 06:11:53;;;;;;;6.30;4.38;;;2.50;99.90;;;;;;4952224;28;20206;-79
2020/12/14 06:14:21;;;;;;;8.07;4.72;;;2.50;99.90;;;;;;4952118;28;20208;-79
2020/12/14 06:16:48;;;;;;;6.80;4.22;;;2.50;99.90;;;;;;4952265;28;20205;-79
2020/12/14 06:19:14;;;;;;;7.35;4.70;;;2.50;99.90;;;;;;4950922;28;20268;-79
2020/12/14 06:21:46;;;;;;;6.13;3.95;;;2.40;99.90;;;;;;4949444;28;20228;-79
2020/12/14 06:24:19;;;;;;;5.32;4.20;;;2.50;99.90;;;;;;4967307;28;20298;-80
2020/12/14 06:26:46;;;;;;;14.90;5.50;;;2.50;99.90;;;;;;5012546;28;20215;-80
2020/12/14 06:29:29;;;;;;;8.10;5.45;;;2.60;99.90;;;;;;5012309;28;20208;-79
2020/12/14 06:31:55;;;;;;;7.28;5.30;;;2.50;99.90;;;;;;5012639;28;20222;-79
2020/12/14 06:34:48;;;;;;;7.93;5.75;;;2.50;99.90;;;;;;5011264;28;20207;-78
2020/12/14 06:37:22;;;;;;;8.15;5.03;;;2.50;99.90;;;;;;4976423;28;20294;-79
2020/12/14 06:39:57;;;;;;;7.30;4.72;;;2.50;99.90;;;;;;5015850;28;20231;-79
2020/12/14 06:42:27;;;;;;;5.93;5.07;;;2.60;99.90;;;;;;5016184;28;20211;-80
2020/12/14 06:45:07;;;;;;;6.55;4.85;;;2.50;99.90;;;;;;5016403;28;20208;-81
2020/12/14 06:47:47;;;;;;;6.43;4.25;;;2.40;99.90;;;;;;5015009;28;20261;-80
2020/12/14 06:50:37;;;;;;;7.15;4.03;;;2.30;99.90;;;;;;5016133;28;20286;-81
2020/12/14 06:53:05;;;;;;;7.68;5.13;;;2.30;99.90;;;;;;5012094;28;20207;-80
2020/12/14 06:55:46;;;;;;;9.77;5.90;;;2.20;99.90;;;;;;5014449;28;20211;-81
2020/12/14 06:58:31;;;;;;;5.90;5.25;;;2.20;99.90;;;;;;5015502;28;20285;-81
2020/12/14 07:00:57;;;;;;;7.70;6.28;;;2.20;99.90;;;;;;5015840;28;20235;-82
2020/12/14 07:03:40;;;;;;;11.50;5.95;;;2.20;99.90;;;;;;5014602;28;20258;-81
2020/12/14 07:06:08;;;;;;;6.20;4.88;;;2.20;99.90;;;;;;5015594;28;20273;-80
2020/12/14 07:08:38;;;;;;;6.15;4.50;;;2.20;99.90;;;;;;5014299;28;20667;-80
2020/12/14 07:11:16;;;;;;;7.68;5.32;;;2.30;99.90;;;;;;5015570;28;20204;-80
2020/12/14 07:13:44;;;;;;;6.20;4.85;;;2.30;99.90;;;;;;5015378;28;20203;-82
2020/12/14 07:16:12;;;;;;;6.45;5.85;;;2.40;99.90;;;;;;5015503;28;20301;-80
2020/12/14 07:18:39;;;;;;;7.25;5.10;;;2.40;99.90;;;;;;5014237;28;20321;-81
2020/12/14 07:21:11;;;;;;;9.18;5.30;;;2.50;99.90;;;;;;5015351;28;20228;-82
2020/12/14 07:23:40;;;;;;;7.78;4.97;;;2.50;99.90;;;;;;5014985;28;20294;-81
2020/12/14 07:26:07;;;;;;;8.02;5.55;;;2.60;99.90;;;;;;5015343;28;20290;-81
2020/12/14 07:28:35;;;;;;;6.45;5.00;;;2.60;99.90;;;;;;5015214;28;20702;-82
2020/12/14 07:31:07;;;;;;;11.30;7.82;;;2.60;99.90;;;;;;5015160;28;20203;-84
2020/12/14 07:33:34;;;;;;;6.47;5.28;;;2.70;99.90;;;;;;5014050;28;20212;-81
2020/12/14 07:36:08;;;;;;;7.32;5.85;;;2.70;99.90;;;;;;5015751;28;20208;-80
2020/12/14 07:38:49;;;;;;;7.57;5.43;;;2.80;99.90;;;;;;5015299;28;20275;-80
2020/12/14 07:41:16;;;;;;;7.43;5.00;;;2.80;99.90;;;;;;5017147;28;20270;-82
2020/12/14 07:43:56;;;;;;;6.50;5.15;;;2.90;99.90;;;;;;5019498;28;20282;-80
2020/12/14 07:46:28;;;;;;;6.90;5.70;;;2.90;99.90;;;;;;5017352;28;20258;-79
2020/12/14 07:48:56;;;;;;;9.05;6.18;;;2.90;99.90;;;;;;5013731;28;20207;-80
2020/12/14 07:51:23;;;;;;;7.68;5.65;;;2.90;99.90;;;;;;5015104;28;20204;-81
2020/12/14 07:53:51;;;;;;;8.60;5.57;;;2.90;99.90;;;;;;5011424;28;20200;-80
2020/12/14 07:56:18;;;;;;;10.60;6.13;;;2.90;99.90;;;;;;4975738;28;20201;-80
2020/12/14 07:58:46;;;;;;;7.95;5.72;;;3.00;99.90;;;;;;4975572;28;20655;-81
2020/12/14 08:01:16;;;;;;;7.75;6.13;;;3.20;99.90;;;;;;4975637;28;20304;-80
2020/12/14 08:03:42;;;;;;;8.10;5.10;;;3.20;99.90;;;;;;4974959;28;20205;-78
2020/12/14 08:06:13;;;;;;;13.30;7.60;;;3.10;99.90;;;;;;4976103;28;20209;-80
2020/12/14 08:08:42;;;;;;;12.43;6.50;;;3.20;99.90;;;;;;4975515;28;20319;-80
2020/12/14 08:11:11;;;;;;;15.13;7.95;;;3.20;99.90;;;;;;4975129;28;20228;-81
2020/12/14 08:13:38;;;;;;;11.02;6.78;;;3.20;99.90;;;;;;4975390;28;20212;-80
2020/12/14 08:16:05;;;;;;;12.27;7.07;;;3.30;99.90;;;;;;4975212;28;20251;-80
2020/12/14 08:18:33;;;;;;;10.32;6.18;;;3.30;99.90;;;;;;4973971;28;20248;-80
2020/12/14 08:20:59;;;;;;;10.30;6.70;;;3.40;99.90;;;;;;4975197;28;20292;-81
2020/12/14 08:23:30;;;;;;;7.10;4.50;;;3.40;99.90;;;;;;4975114;28;20300;-81
2020/12/14 08:25:57;;;;;;;9.95;7.07;;;3.50;99.90;;;;;;5008737;28;20215;-81
2020/12/14 08:28:29;;;;;;;8.95;6.57;;;3.50;99.90;;;;;;5014018;28;20208;-80
2020/12/14 08:30:55;;;;;;;5.68;4.63;;;3.60;99.90;;;;;;5014017;28;20238;-81
2020/12/14 08:33:22;;;;;;;7.90;5.53;;;3.70;99.90;;;;;;5012743;28;20207;-81
2020/12/14 08:35:50;;;;;;;6.70;4.70;;;3.80;99.90;;;;;;5013978;28;20298;-81
2020/12/14 08:38:18;;;;;;;7.75;5.43;;;3.80;99.90;;;;;;5013766;28;20237;-79
2020/12/14 08:40:54;;;;;;;10.52;6.20;;;4.00;99.90;;;;;;5013804;28;20208;-80
2020/12/14 08:43:21;;;;;;;13.15;6.63;;;4.00;99.90;;;;;;5013849;28;20199;-81
2020/12/14 08:46:04;;;;;;;11.20;6.45;;;4.10;99.90;;;;;;5013795;28;20294;-81
2020/12/14 08:48:32;;;;;;;10.30;5.70;;;4.30;99.90;;;;;;5012421;28;20290;-80
2020/12/14 08:51:07;;;;;;;9.00;6.28;;;4.40;99.90;;;;;;5013639;28;20204;-80
2020/12/14 08:53:34;;;;;;;10.43;7.05;;;4.40;99.90;;;;;;5013622;28;20206;-81
2020/12/14 08:56:06;;;;;;;8.85;6.22;;;4.50;99.90;;;;;;5012224;28;20200;-81
2020/12/14 08:58:33;;;;;;;8.48;5.20;;;4.60;99.90;;;;;;5013211;28;20274;-80
2020/12/14 09:01:12;;;;;;;8.10;5.80;;;4.70;99.90;;;;;;5013013;28;20660;-81
2020/12/14 09:03:52;;;;;;;10.73;4.90;;;4.80;99.90;;;;;;5008350;28;20242;-81
2020/12/14 09:06:27;;;;;;;6.35;4.18;;;4.90;99.90;;;;;;5013314;28;20203;-80
2020/12/14 09:09:02;;;;;;;4.50;4.07;;;5.00;99.90;;;;;;5013380;28;20697;-81
2020/12/14 09:11:29;;;;;;;7.05;4.72;;;5.00;99.90;;;;;;5012983;28;20286;-80
2020/12/14 09:13:56;;;;;;;4.60;4.20;;;5.00;99.90;;;;;;5013307;28;20210;-81
2020/12/14 09:16:24;;;;;;;7.10;5.30;;;5.10;99.90;;;;;;5013366;28;20204;-81
2020/12/14 09:18:50;;;;;;;7.97;5.25;;;5.20;99.90;;;;;;5012033;28;20809;-81
2020/12/14 09:21:17;;;;;;;5.22;4.18;;;5.30;99.90;;;;;;5013279;28;20246;-79
2020/12/14 09:23:44;;;;;;;5.80;3.85;;;5.30;99.90;;;;;;5012979;28;20784;-80
2020/12/14 09:26:10;;;;;;;5.65;4.30;;;5.30;99.90;;;;;;5012850;28;20254;-82
2020/12/14 09:28:37;;;;;;;6.15;3.50;;;5.40;99.90;;;;;;5010102;28;20293;-81
2020/12/14 09:31:04;;;;;;;7.85;5.00;;;5.40;99.90;;;;;;5013117;28;20326;-81
2020/12/14 09:33:31;;;;;;;4.95;4.40;;;5.50;99.90;;;;;;5010605;28;20651;-83
2020/12/14 09:35:58;;;;;;;6.15;4.43;;;5.60;99.90;;;;;;5013179;28;20207;-82
2020/12/14 09:38:24;;;;;;;4.43;3.60;;;5.60;99.90;;;;;;5013007;28;20602;-81
2020/12/14 09:40:52;;;;;;;6.70;4.45;;;5.70;99.90;;;;;;5012932;28;20207;-82
2020/12/14 09:43:19;;;;;;;5.07;3.60;;;5.70;99.90;;;;;;5012984;28;20303;-82
2020/12/14 09:45:49;;;;;;;7.03;5.32;;;5.80;99.90;;;;;;5013077;28;20716;-82
2020/12/14 09:48:16;;;;;;;9.82;3.83;;;5.80;99.90;;;;;;5011494;28;20211;-82
2020/12/14 09:50:43;;;;;;;4.85;4.18;;;5.90;99.90;;;;;;5012833;28;20203;-80
2020/12/14 09:53:09;;;;;;;8.88;4.78;;;5.90;99.90;;;;;;5012922;28;20663;-81
2020/12/14 09:55:35;;;;;;;4.43;3.92;;;5.90;99.90;;;;;;5013014;28;20881;-85
2020/12/14 09:58:04;;;;;;;4.80;4.18;;;5.90;99.90;;;;;;5012847;28;20613;-82
2020/12/14 10:00:30;;;;;;;4.82;3.88;;;6.00;99.90;;;;;;5012845;28;20203;-81
2020/12/14 10:02:57;;;;;;;4.95;3.90;;;6.10;99.90;;;;;;5011295;28;20762;-80
2020/12/14 10:05:23;;;;;;;4.38;3.88;;;6.20;99.90;;;;;;5011517;28;20298;-80
2020/12/14 10:07:50;;;;;;;6.15;4.45;;;6.20;99.90;;;;;;5012557;28;20299;-82
2020/12/14 10:10:17;;;;;;;5.15;3.97;;;6.30;99.90;;;;;;5012710;28;20218;-82
2020/12/14 10:12:43;;;;;;;6.00;4.43;;;6.40;99.90;;;;;;5013323;28;20226;-81
2020/12/14 10:15:09;;;;;;;6.05;4.80;;;6.50;99.90;;;;;;5016475;28;20294;-81
2020/12/14 10:17:36;;;;;;;6.40;4.45;;;6.60;99.90;;;;;;5015471;28;20229;-80
2020/12/14 10:20:04;;;;;;;8.93;4.95;;;6.70;99.90;;;;;;5016120;28;20604;-81
2020/12/14 10:22:31;;;;;;;5.38;4.10;;;6.80;99.90;;;;;;5016203;28;20302;-80
2020/12/14 10:24:58;;;;;;;5.82;4.20;;;7.10;99.90;;;;;;5016388;28;20204;-81
2020/12/14 10:27:25;;;;;;;5.30;3.60;;;7.20;99.90;;;;;;5016268;28;20208;-82
2020/12/14 10:29:51;;;;;;;3.83;3.47;;;7.30;99.90;;;;;;5016486;28;20295;-81
2020/12/14 10:32:17;;;;;;;4.65;3.28;;;7.30;99.90;;;;;;5016248;28;20233;-82
2020/12/14 10:34:44;;;;;;;4.30;3.40;;;7.40;99.90;;;;;;5014679;28;20229;-81
2020/12/14 10:37:10;;;;;;;4.05;3.67;;;7.50;99.90;;;;;;5016056;28;20742;-81
2020/12/14 10:39:36;;;;;;;5.43;3.43;;;7.50;99.90;;;;;;5015814;28;20322;-82
2020/12/14 10:42:04;;;;;;;4.13;3.73;;;7.60;99.90;;;;;;5016047;28;20554;-81
2020/12/14 10:44:30;;;;;;;5.00;3.00;;;7.70;99.90;;;;;;5014670;28;21048;-81
2020/12/14 10:47:02;;;;;;;4.83;3.83;;;7.60;99.90;;;;;;5016032;28;20448;-82
2020/12/14 10:49:28;;;;;;;6.23;4.17;;;7.70;99.90;;;;;;5014636;28;20454;-81
2020/12/14 10:51:55;;;;;;;4.40;3.40;;;7.90;99.90;;;;;;5015739;28;20534;-80
2020/12/14 10:54:21;;;;;;;3.70;3.30;;;8.10;99.90;;;;;;5011765;28;20941;-81
2020/12/14 10:56:47;;;;;;;5.40;4.20;;;8.20;99.90;;;;;;5015578;28;20448;-83
2020/12/14 10:59:15;;;;;;;5.20;4.30;;;8.20;99.90;;;;;;5015269;28;20873;-82
2020/12/14 11:01:41;;;;;;;4.57;3.37;;;8.30;99.90;;;;;;5015778;28;20446;-82
2020/12/14 11:04:07;;;;;;;7.60;4.30;;;8.30;99.90;;;;;;5014282;28;20541;-80
2020/12/14 11:06:34;;;;;;;4.47;3.53;;;8.30;99.90;;;;;;5014213;28;20470;-80
2020/12/14 11:09:00;;;;;;;5.47;4.27;;;8.20;99.90;;;;;;5015541;28;20454;-82
2020/12/14 11:11:31;;;;;;;3.77;3.47;;;8.20;99.90;;;;;;5015597;28;20465;-82
2020/12/14 11:13:59;;;;;;;4.80;4.30;;;8.20;99.90;;;;;;5015592;28;20553;-80
2020/12/14 11:16:27;;;;;;;7.43;5.03;;;8.20;99.90;;;;;;5016808;28;20450;-80
2020/12/14 11:18:53;;;;;;;5.20;3.87;;;8.30;99.90;;;;;;5014864;28;20485;-81
2020/12/14 11:21:20;;;;;;;4.70;4.27;;;8.40;99.90;;;;;;5015188;28;20450;-80
2020/12/14 11:23:46;;;;;;;5.73;4.30;;;8.20;99.90;;;;;;5015051;28;20534;-80
2020/12/14 11:26:13;;;;;;;6.70;4.00;;;8.20;99.90;;;;;;5015437;28;20489;-81
2020/12/14 11:28:39;;;;;;;4.50;3.43;;;8.30;99.90;;;;;;5015305;28;20537;-80
2020/12/14 11:31:07;;;;;;;4.53;3.70;;;8.30;99.90;;;;;;5014998;28;20455;-82
2020/12/14 11:33:36;;;;;;;4.47;4.00;;;8.50;99.90;;;;;;5013895;28;20482;-81
2020/12/14 11:36:03;;;;;;;4.70;3.73;;;8.70;99.90;;;;;;5013831;28;20466;-81
2020/12/14 11:38:30;;;;;;;4.67;4.17;;;8.80;99.90;;;;;;5014918;28;20521;-81
2020/12/14 11:40:57;;;;;;;5.10;4.00;;;8.80;99.90;;;;;;5014906;28;20457;-81
2020/12/14 11:43:23;;;;;;;6.10;4.23;;;8.90;99.90;;;;;;5014884;28;20976;-79
2020/12/14 11:45:50;;;;;;;4.77;4.33;;;9.00;99.90;;;;;;5014770;28;20444;-82
2020/12/14 11:48:16;;;;;;;4.93;4.10;;;8.90;99.90;;;;;;5013766;28;20814;-80
2020/12/14 11:50:44;;;;;;;5.27;4.00;;;8.80;99.90;;;;;;5014488;28;20626;-81
2020/12/14 11:53:11;;;;;;;5.20;3.67;;;8.80;99.90;;;;;;5014943;28;20525;-82
2020/12/14 11:55:37;;;;;;;4.00;3.60;;;8.70;99.90;;;;;;5009391;28;20462;-81
2020/12/14 11:58:04;;;;;;;3.80;3.50;;;8.80;99.90;;;;;;4994820;28;20483;-80
2020/12/14 12:00:30;;;;;;;5.83;4.10;;;8.90;99.90;;;;;;4994887;28;20457;-80
2020/12/14 12:02:57;;;;;;;5.03;3.90;;;9.10;99.90;;;;;;4993654;28;20666;-80
2020/12/14 12:05:24;;;;;;;5.47;4.20;;;9.10;99.90;;;;;;4994863;28;20447;-81
2020/12/14 12:07:51;;;;;;;4.33;3.83;;;9.10;99.90;;;;;;4994595;28;20506;-80
2020/12/14 12:10:17;;;;;;;5.40;4.80;;;9.00;99.90;;;;;;4994933;28;20470;-80
2020/12/14 12:12:44;;;;;;;5.90;4.67;;;9.00;99.90;;;;;;5005215;28;20466;-81
2020/12/14 12:15:15;;;;;;;4.77;3.97;;;9.10;99.90;;;;;;5014344;28;20464;-81
2020/12/14 12:17:44;;;;;;;5.43;4.20;;;9.10;99.90;;;;;;5014142;28;20811;-81
2020/12/14 12:20:10;;;;;;;7.70;5.10;;;9.20;99.90;;;;;;5014205;28;20493;-82
2020/12/14 12:22:37;;;;;;;6.57;4.40;;;9.20;99.90;;;;;;5014235;28;20542;-80
2020/12/14 12:25:05;;;;;;;6.33;4.80;;;9.40;99.90;;;;;;5014161;28;20459;-81
2020/12/14 12:27:31;;;;;;;7.63;4.67;;;9.40;99.90;;;;;;5013779;28;20466;-81
2020/12/14 12:29:57;;;;;;;5.43;4.87;;;9.50;99.90;;;;;;5014009;28;20504;-81
2020/12/14 12:32:24;;;;;;;6.90;5.60;;;9.40;99.90;;;;;;5014035;28;20533;-89
2020/12/14 12:34:50;;;;;;;7.00;5.83;;;9.40;99.90;;;;;;5012526;28;20453;-85
2020/12/14 12:37:17;;;;;;;6.77;5.97;;;9.50;99.90;;;;;;5013622;28;21033;-80
2020/12/14 12:39:43;;;;;;;7.40;5.43;;;9.40;99.90;;;;;;5013902;28;20552;-80
2020/12/14 12:42:10;;;;;;;7.03;5.70;;;9.40;99.90;;;;;;5012122;28;20463;-80
2020/12/14 12:44:36;;;;;;;5.97;4.53;;;9.50;99.90;;;;;;5013735;28;20462;-79
2020/12/14 12:47:05;;;;;;;5.20;4.70;;;9.50;99.90;;;;;;5013751;28;20447;-79
2020/12/14 12:49:32;;;;;;;6.60;4.80;;;9.60;99.90;;;;;;5013666;28;20537;-80
2020/12/14 12:52:00;;;;;;;6.83;5.37;;;9.60;99.90;;;;;;5014349;28;20808;-79
2020/12/14 12:54:27;;;;;;;5.50;4.50;;;9.50;99.90;;;;;;5015076;28;20533;-80
2020/12/14 12:56:53;;;;;;;7.60;5.20;;;9.60;99.90;;;;;;5013353;28;20457;-81
2020/12/14 12:59:20;;;;;;;6.57;4.70;;;9.60;99.90;;;;;;5013752;28;20506;-81